sensor_id;sensor_type;location;lat;lon;timestamp;temperature;humidity
8527;DHT22;4301;48.362;8.478;2023-03-14T00:00:06;8.30;99.90
8527;DHT22;4301;48.362;8.478;2023-03-14T00:02:34;8.20;99.90
8527;DHT22;4301;48.362;8.478;2023-03-14T00:05:01;8.20;99.90
8527;DHT22;4301;48.362;8.478;2023-03-14T00:07:32;8.20;99.90
8527;DHT22;4301;48.362;8.478;2023-03-14T00:10:01;8.10;99.90
8527;DHT22;4301;48.362;8.478;2023-03-14T00:12:30;8.10;99.90
8527;DHT22;4301;48.362;8.478;2023-03-14T00:14:57;8.00;99.90
8527;DHT22;4301;48.362;8.478;2023-03-14T00:17:27;8.00;99.90
8527;DHT22;4301;48.362;8.478;2023-03-14T00:19:54;8.00;99.90
8527;DHT22;4301;48.362;8.478;2023-03-14T00:22:21;8.00;99.90
8527;DHT22;4301;48.362;8.478;2023-03-14T00:24:48;8.00;99.90
8527;DHT22;4301;48.362;8.478;2023-03-14T00:27:15;8.00;99.90
8527;DHT22;4301;48.362;8.478;2023-03-14T00:29:42;8.10;99.90
8527;DHT22;4301;48.362;8.478;2023-03-14T00:32:10;8.10;99.90
8527;DHT22;4301;48.362;8.478;2023-03-14T00:34:38;8.10;99.90
8527;DHT22;4301;48.362;8.478;2023-03-14T00:37:06;8.10;99.90
8527;DHT22;4301;48.362;8.478;2023-03-14T00:39:33;8.10;99.90
8527;DHT22;4301;48.362;8.478;2023-03-14T00:42:00;8.10;99.90
8527;DHT22;4301;48.362;8.478;2023-03-14T00:44:27;8.10;99.90
8527;DHT22;4301;48.362;8.478;2023-03-14T00:46:53;8.00;99.90
8527;DHT22;4301;48.362;8.478;2023-03-14T00:49:20;8.10;99.90
8527;DHT22;4301;48.362;8.478;2023-03-14T00:51:49;8.10;99.90
8527;DHT22;4301;48.362;8.478;2023-03-14T00:54:17;8.10;99.90
8527;DHT22;4301;48.362;8.478;2023-03-14T00:56:43;8.10;99.90
8527;DHT22;4301;48.362;8.478;2023-03-14T00:59:10;8.10;99.90
8527;DHT22;4301;48.362;8.478;2023-03-14T01:01:38;8.10;99.90
8527;DHT22;4301;48.362;8.478;2023-03-14T01:04:06;8.10;99.90
8527;DHT22;4301;48.362;8.478;2023-03-14T01:06:33;8.10;99.90
8527;DHT22;4301;48.362;8.478;2023-03-14T01:09:01;8.10;99.90
8527;DHT22;4301;48.362;8.478;2023-03-14T01:11:30;8.00;99.90
8527;DHT22;4301;48.362;8.478;2023-03-14T01:13:57;8.00;99.90
8527;DHT22;4301;48.362;8.478;2023-03-14T01:16:26;8.10;99.90
8527;DHT22;4301;48.362;8.478;2023-03-14T01:18:54;8.10;99.90
8527;DHT22;4301;48.362;8.478;2023-03-14T01:21:22;8.10;99.90
8527;DHT22;4301;48.362;8.478;2023-03-14T01:23:50;8.10;99.90
8527;DHT22;4301;48.362;8.478;2023-03-14T01:26:21;8.10;99.90
8527;DHT22;4301;48.362;8.478;2023-03-14T01:28:49;8.10;99.90
8527;DHT22;4301;48.362;8.478;2023-03-14T01:31:17;8.00;99.90
8527;DHT22;4301;48.362;8.478;2023-03-14T01:33:45;8.00;99.90
8527;DHT22;4301;48.362;8.478;2023-03-14T01:36:12;8.00;99.90
8527;DHT22;4301;48.362;8.478;2023-03-14T01:38:40;8.00;99.90
8527;DHT22;4301;48.362;8.478;2023-03-14T01:41:09;7.90;99.90
8527;DHT22;4301;48.362;8.478;2023-03-14T01:43:39;7.90;99.90
8527;DHT22;4301;48.362;8.478;2023-03-14T01:46:19;7.90;99.90
8527;DHT22;4301;48.362;8.478;2023-03-14T01:48:50;7.90;99.90
8527;DHT22;4301;48.362;8.478;2023-03-14T01:51:21;7.80;99.90
8527;DHT22;4301;48.362;8.478;2023-03-14T01:53:49;7.80;99.90
8527;DHT22;4301;48.362;8.478;2023-03-14T01:56:18;7.80;99.90
8527;DHT22;4301;48.362;8.478;2023-03-14T01:58:49;7.80;99.90
8527;DHT22;4301;48.362;8.478;2023-03-14T02:01:20;7.80;99.90
8527;DHT22;4301;48.362;8.478;2023-03-14T02:03:51;7.80;99.90
8527;DHT22;4301;48.362;8.478;2023-03-14T02:06:23;7.80;99.90
8527;DHT22;4301;48.362;8.478;2023-03-14T02:08:50;7.80;99.90
8527;DHT22;4301;48.362;8.478;2023-03-14T02:11:18;7.80;99.90
8527;DHT22;4301;48.362;8.478;2023-03-14T02:13:47;7.80;99.90
8527;DHT22;4301;48.362;8.478;2023-03-14T02:16:15;7.80;99.90
8527;DHT22;4301;48.362;8.478;2023-03-14T02:18:42;7.70;99.90
8527;DHT22;4301;48.362;8.478;2023-03-14T02:21:12;7.70;99.90
8527;DHT22;4301;48.362;8.478;2023-03-14T02:23:46;7.70;96.70
8527;DHT22;4301;48.362;8.478;2023-03-14T02:26:20;7.70;95.50
8527;DHT22;4301;48.362;8.478;2023-03-14T02:28:50;7.60;99.90
8527;DHT22;4301;48.362;8.478;2023-03-14T02:31:19;7.60;99.90
8527;DHT22;4301;48.362;8.478;2023-03-14T02:33:48;7.60;99.60
8527;DHT22;4301;48.362;8.478;2023-03-14T02:36:15;7.50;99.90
8527;DHT22;4301;48.362;8.478;2023-03-14T02:38:47;7.50;99.90
8527;DHT22;4301;48.362;8.478;2023-03-14T02:41:15;7.50;99.60
8527;DHT22;4301;48.362;8.478;2023-03-14T02:43:42;7.40;99.90
8527;DHT22;4301;48.362;8.478;2023-03-14T02:46:13;7.40;99.90
8527;DHT22;4301;48.362;8.478;2023-03-14T02:48:44;7.40;99.90
8527;DHT22;4301;48.362;8.478;2023-03-14T02:51:13;7.40;95.40
8527;DHT22;4301;48.362;8.478;2023-03-14T02:53:41;7.40;92.70
8527;DHT22;4301;48.362;8.478;2023-03-14T02:56:09;7.40;80.70
8527;DHT22;4301;48.362;8.478;2023-03-14T02:58:37;7.30;72.30
8527;DHT22;4301;48.362;8.478;2023-03-14T03:01:05;7.30;61.50
8527;DHT22;4301;48.362;8.478;2023-03-14T03:03:33;7.30;82.90
8527;DHT22;4301;48.362;8.478;2023-03-14T03:06:00;7.20;69.50
8527;DHT22;4301;48.362;8.478;2023-03-14T03:08:28;7.20;96.10
8527;DHT22;4301;48.362;8.478;2023-03-14T03:10:57;7.20;86.50
8527;DHT22;4301;48.362;8.478;2023-03-14T03:13:24;7.20;92.60
8527;DHT22;4301;48.362;8.478;2023-03-14T03:15:51;7.20;76.30
8527;DHT22;4301;48.362;8.478;2023-03-14T03:18:18;7.10;68.40
8527;DHT22;4301;48.362;8.478;2023-03-14T03:20:46;7.10;69.10
8527;DHT22;4301;48.362;8.478;2023-03-14T03:23:13;7.10;79.90
8527;DHT22;4301;48.362;8.478;2023-03-14T03:25:40;7.20;67.70
8527;DHT22;4301;48.362;8.478;2023-03-14T03:28:07;7.20;37.60
8527;DHT22;4301;48.362;8.478;2023-03-14T03:30:37;7.20;60.00
8527;DHT22;4301;48.362;8.478;2023-03-14T03:33:04;7.20;46.60
8527;DHT22;4301;48.362;8.478;2023-03-14T03:35:31;7.20;31.30
8527;DHT22;4301;48.362;8.478;2023-03-14T03:37:59;7.20;12.10
8527;DHT22;4301;48.362;8.478;2023-03-14T03:40:26;7.20;17.60
8527;DHT22;4301;48.362;8.478;2023-03-14T03:42:53;7.20;34.00
8527;DHT22;4301;48.362;8.478;2023-03-14T03:45:20;7.20;51.60
8527;DHT22;4301;48.362;8.478;2023-03-14T03:47:47;7.20;10.40
8527;DHT22;4301;48.362;8.478;2023-03-14T03:50:14;7.20;24.20
8527;DHT22;4301;48.362;8.478;2023-03-14T03:52:41;7.20;1.00
8527;DHT22;4301;48.362;8.478;2023-03-14T03:55:10;7.30;1.00
8527;DHT22;4301;48.362;8.478;2023-03-14T03:57:36;7.30;1.00
8527;DHT22;4301;48.362;8.478;2023-03-14T04:00:05;7.30;1.00
8527;DHT22;4301;48.362;8.478;2023-03-14T04:02:33;7.30;1.00
8527;DHT22;4301;48.362;8.478;2023-03-14T04:04:59;7.30;1.00
8527;DHT22;4301;48.362;8.478;2023-03-14T04:07:26;7.20;1.00
8527;DHT22;4301;48.362;8.478;2023-03-14T04:09:53;7.30;1.00
8527;DHT22;4301;48.362;8.478;2023-03-14T04:12:22;7.20;1.00
8527;DHT22;4301;48.362;8.478;2023-03-14T04:14:49;7.20;1.00
8527;DHT22;4301;48.362;8.478;2023-03-14T04:17:16;7.20;1.00
8527;DHT22;4301;48.362;8.478;2023-03-14T04:19:43;7.30;1.00
8527;DHT22;4301;48.362;8.478;2023-03-14T04:22:10;7.30;1.00
8527;DHT22;4301;48.362;8.478;2023-03-14T04:24:36;7.30;1.00
8527;DHT22;4301;48.362;8.478;2023-03-14T04:27:03;7.30;1.00
8527;DHT22;4301;48.362;8.478;2023-03-14T04:29:32;7.30;1.00
8527;DHT22;4301;48.362;8.478;2023-03-14T04:31:58;7.40;1.00
8527;DHT22;4301;48.362;8.478;2023-03-14T04:34:25;7.40;1.00
8527;DHT22;4301;48.362;8.478;2023-03-14T04:36:52;7.40;1.00
8527;DHT22;4301;48.362;8.478;2023-03-14T04:39:19;7.40;1.00
8527;DHT22;4301;48.362;8.478;2023-03-14T04:41:46;7.40;1.00
8527;DHT22;4301;48.362;8.478;2023-03-14T04:44:13;7.50;1.00
8527;DHT22;4301;48.362;8.478;2023-03-14T04:46:41;7.50;1.00
8527;DHT22;4301;48.362;8.478;2023-03-14T04:49:08;7.40;1.00
8527;DHT22;4301;48.362;8.478;2023-03-14T04:51:35;7.50;1.00
8527;DHT22;4301;48.362;8.478;2023-03-14T04:54:02;7.60;1.00
8527;DHT22;4301;48.362;8.478;2023-03-14T04:56:29;7.60;1.00
8527;DHT22;4301;48.362;8.478;2023-03-14T04:58:56;7.50;1.00
8527;DHT22;4301;48.362;8.478;2023-03-14T05:01:23;7.60;1.00
8527;DHT22;4301;48.362;8.478;2023-03-14T05:03:51;7.60;1.00
8527;DHT22;4301;48.362;8.478;2023-03-14T05:06:18;7.60;1.00
8527;DHT22;4301;48.362;8.478;2023-03-14T05:08:45;7.50;1.00
8527;DHT22;4301;48.362;8.478;2023-03-14T05:11:12;7.50;1.00
8527;DHT22;4301;48.362;8.478;2023-03-14T05:13:39;7.50;1.00
8527;DHT22;4301;48.362;8.478;2023-03-14T05:16:08;7.50;1.00
8527;DHT22;4301;48.362;8.478;2023-03-14T05:18:35;7.50;1.00
8527;DHT22;4301;48.362;8.478;2023-03-14T05:21:04;7.50;1.00
8527;DHT22;4301;48.362;8.478;2023-03-14T05:23:31;7.50;1.00
8527;DHT22;4301;48.362;8.478;2023-03-14T05:25:58;7.40;1.00
8527;DHT22;4301;48.362;8.478;2023-03-14T05:28:25;7.40;1.00
8527;DHT22;4301;48.362;8.478;2023-03-14T05:30:52;7.40;1.00
8527;DHT22;4301;48.362;8.478;2023-03-14T05:33:19;7.40;1.00
8527;DHT22;4301;48.362;8.478;2023-03-14T05:35:46;7.50;1.00
8527;DHT22;4301;48.362;8.478;2023-03-14T05:38:14;7.50;1.00
8527;DHT22;4301;48.362;8.478;2023-03-14T05:40:41;7.60;1.00
8527;DHT22;4301;48.362;8.478;2023-03-14T05:43:08;7.50;1.00
8527;DHT22;4301;48.362;8.478;2023-03-14T05:45:35;7.50;1.00
8527;DHT22;4301;48.362;8.478;2023-03-14T05:48:02;7.50;1.00
8527;DHT22;4301;48.362;8.478;2023-03-14T05:50:29;7.50;1.00
8527;DHT22;4301;48.362;8.478;2023-03-14T05:52:56;7.60;1.00
8527;DHT22;4301;48.362;8.478;2023-03-14T05:55:25;7.50;1.00
8527;DHT22;4301;48.362;8.478;2023-03-14T05:57:52;7.60;1.00
8527;DHT22;4301;48.362;8.478;2023-03-14T06:00:20;7.70;1.00
8527;DHT22;4301;48.362;8.478;2023-03-14T06:02:47;7.70;1.00
8527;DHT22;4301;48.362;8.478;2023-03-14T06:05:14;7.70;1.00
8527;DHT22;4301;48.362;8.478;2023-03-14T06:07:41;7.70;1.00
8527;DHT22;4301;48.362;8.478;2023-03-14T06:10:09;7.80;1.00
8527;DHT22;4301;48.362;8.478;2023-03-14T06:12:37;7.80;99.90
8527;DHT22;4301;48.362;8.478;2023-03-14T06:15:05;7.80;1.00
8527;DHT22;4301;48.362;8.478;2023-03-14T06:17:32;7.70;1.00
8527;DHT22;4301;48.362;8.478;2023-03-14T06:19:59;7.80;99.90
8527;DHT22;4301;48.362;8.478;2023-03-14T06:22:26;7.80;99.90
8527;DHT22;4301;48.362;8.478;2023-03-14T06:24:53;7.90;99.90
8527;DHT22;4301;48.362;8.478;2023-03-14T06:27:20;7.80;99.90
8527;DHT22;4301;48.362;8.478;2023-03-14T06:29:48;7.80;1.00
8527;DHT22;4301;48.362;8.478;2023-03-14T06:32:15;7.90;1.00
8527;DHT22;4301;48.362;8.478;2023-03-14T06:34:43;7.90;1.00
8527;DHT22;4301;48.362;8.478;2023-03-14T06:37:10;8.00;1.00
8527;DHT22;4301;48.362;8.478;2023-03-14T06:39:37;8.00;1.00
8527;DHT22;4301;48.362;8.478;2023-03-14T06:42:04;8.20;1.00
8527;DHT22;4301;48.362;8.478;2023-03-14T06:44:32;8.30;99.90
8527;DHT22;4301;48.362;8.478;2023-03-14T06:47:00;8.40;99.90
8527;DHT22;4301;48.362;8.478;2023-03-14T06:49:27;8.40;1.00
8527;DHT22;4301;48.362;8.478;2023-03-14T06:51:54;8.50;4.70
8527;DHT22;4301;48.362;8.478;2023-03-14T06:54:21;8.60;99.90
8527;DHT22;4301;48.362;8.478;2023-03-14T06:56:48;8.60;99.90
8527;DHT22;4301;48.362;8.478;2023-03-14T06:59:15;8.60;99.90
8527;DHT22;4301;48.362;8.478;2023-03-14T07:01:42;8.60;1.00
8527;DHT22;4301;48.362;8.478;2023-03-14T07:04:11;8.70;99.90
8527;DHT22;4301;48.362;8.478;2023-03-14T07:06:37;8.90;99.90
8527;DHT22;4301;48.362;8.478;2023-03-14T07:09:05;9.10;1.00
8527;DHT22;4301;48.362;8.478;2023-03-14T07:11:32;9.00;99.90
8527;DHT22;4301;48.362;8.478;2023-03-14T07:13:59;8.90;99.90
8527;DHT22;4301;48.362;8.478;2023-03-14T07:16:25;9.00;1.00
8527;DHT22;4301;48.362;8.478;2023-03-14T07:18:54;8.90;1.00
8527;DHT22;4301;48.362;8.478;2023-03-14T07:21:22;9.00;35.40
8527;DHT22;4301;48.362;8.478;2023-03-14T07:23:49;9.30;94.50
8527;DHT22;4301;48.362;8.478;2023-03-14T07:26:17;9.50;1.00
8527;DHT22;4301;48.362;8.478;2023-03-14T07:28:44;9.60;1.00
8527;DHT22;4301;48.362;8.478;2023-03-14T07:31:11;9.90;99.90
8527;DHT22;4301;48.362;8.478;2023-03-14T07:33:38;10.50;1.00
8527;DHT22;4301;48.362;8.478;2023-03-14T07:36:05;10.40;99.90
8527;DHT22;4301;48.362;8.478;2023-03-14T07:38:34;10.30;1.00
8527;DHT22;4301;48.362;8.478;2023-03-14T07:41:02;10.20;99.90
8527;DHT22;4301;48.362;8.478;2023-03-14T07:43:30;9.90;99.90
8527;DHT22;4301;48.362;8.478;2023-03-14T07:45:57;9.50;1.00
8527;DHT22;4301;48.362;8.478;2023-03-14T07:48:24;9.40;1.00
8527;DHT22;4301;48.362;8.478;2023-03-14T07:50:53;9.20;1.00
8527;DHT22;4301;48.362;8.478;2023-03-14T07:53:20;9.10;3.10
8527;DHT22;4301;48.362;8.478;2023-03-14T07:55:50;9.00;99.90
8527;DHT22;4301;48.362;8.478;2023-03-14T07:58:17;9.00;1.00
8527;DHT22;4301;48.362;8.478;2023-03-14T08:00:44;8.90;1.00
8527;DHT22;4301;48.362;8.478;2023-03-14T08:03:11;8.90;99.90
8527;DHT22;4301;48.362;8.478;2023-03-14T08:05:39;8.80;1.00
8527;DHT22;4301;48.362;8.478;2023-03-14T08:08:07;8.70;99.90
8527;DHT22;4301;48.362;8.478;2023-03-14T08:10:34;8.70;99.90
8527;DHT22;4301;48.362;8.478;2023-03-14T08:13:03;8.70;1.00
8527;DHT22;4301;48.362;8.478;2023-03-14T08:15:30;8.80;1.00
8527;DHT22;4301;48.362;8.478;2023-03-14T08:17:58;8.70;99.90
8527;DHT22;4301;48.362;8.478;2023-03-14T08:20:26;8.70;1.00
8527;DHT22;4301;48.362;8.478;2023-03-14T08:22:55;8.60;99.90
8527;DHT22;4301;48.362;8.478;2023-03-14T08:25:22;8.60;22.40
8527;DHT22;4301;48.362;8.478;2023-03-14T08:27:49;8.70;1.00
8527;DHT22;4301;48.362;8.478;2023-03-14T08:30:19;8.70;99.90
8527;DHT22;4301;48.362;8.478;2023-03-14T08:32:46;8.70;1.00
8527;DHT22;4301;48.362;8.478;2023-03-14T08:35:14;8.80;99.90
8527;DHT22;4301;48.362;8.478;2023-03-14T08:37:41;8.90;1.00
8527;DHT22;4301;48.362;8.478;2023-03-14T08:40:09;8.90;99.90
8527;DHT22;4301;48.362;8.478;2023-03-14T08:42:37;9.00;1.00
8527;DHT22;4301;48.362;8.478;2023-03-14T08:45:06;9.30;1.00
8527;DHT22;4301;48.362;8.478;2023-03-14T08:47:34;9.30;99.90
8527;DHT22;4301;48.362;8.478;2023-03-14T08:50:02;9.30;99.90
8527;DHT22;4301;48.362;8.478;2023-03-14T08:52:29;9.30;1.00
8527;DHT22;4301;48.362;8.478;2023-03-14T08:54:57;9.20;99.90
8527;DHT22;4301;48.362;8.478;2023-03-14T08:57:24;9.20;99.90
8527;DHT22;4301;48.362;8.478;2023-03-14T08:59:53;9.20;1.00
8527;DHT22;4301;48.362;8.478;2023-03-14T09:02:21;9.20;99.90
8527;DHT22;4301;48.362;8.478;2023-03-14T09:04:50;9.10;1.00
8527;DHT22;4301;48.362;8.478;2023-03-14T09:07:17;9.10;1.00
8527;DHT22;4301;48.362;8.478;2023-03-14T09:09:44;9.20;1.00
8527;DHT22;4301;48.362;8.478;2023-03-14T09:12:11;9.20;1.00
8527;DHT22;4301;48.362;8.478;2023-03-14T09:14:38;9.20;99.90
8527;DHT22;4301;48.362;8.478;2023-03-14T09:17:05;9.40;97.40
8527;DHT22;4301;48.362;8.478;2023-03-14T09:19:33;9.60;99.90
8527;DHT22;4301;48.362;8.478;2023-03-14T09:22:02;9.50;99.90
8527;DHT22;4301;48.362;8.478;2023-03-14T09:24:29;9.20;1.00
8527;DHT22;4301;48.362;8.478;2023-03-14T09:26:57;9.30;99.90
8527;DHT22;4301;48.362;8.478;2023-03-14T09:29:24;9.40;99.90
8527;DHT22;4301;48.362;8.478;2023-03-14T09:31:52;9.30;1.00
8527;DHT22;4301;48.362;8.478;2023-03-14T09:34:19;9.30;99.90
8527;DHT22;4301;48.362;8.478;2023-03-14T09:36:46;9.30;1.00
8527;DHT22;4301;48.362;8.478;2023-03-14T09:39:14;9.30;73.60
8527;DHT22;4301;48.362;8.478;2023-03-14T09:41:44;9.60;99.90
8527;DHT22;4301;48.362;8.478;2023-03-14T09:44:15;9.70;99.90
8527;DHT22;4301;48.362;8.478;2023-03-14T09:46:45;9.70;1.00
8527;DHT22;4301;48.362;8.478;2023-03-14T09:49:18;9.60;1.00
8527;DHT22;4301;48.362;8.478;2023-03-14T09:51:47;9.50;1.00
8527;DHT22;4301;48.362;8.478;2023-03-14T09:54:28;9.50;99.90
8527;DHT22;4301;48.362;8.478;2023-03-14T09:56:57;9.70;99.90
8527;DHT22;4301;48.362;8.478;2023-03-14T09:59:26;9.60;1.00
8527;DHT22;4301;48.362;8.478;2023-03-14T10:01:55;9.50;99.90
8527;DHT22;4301;48.362;8.478;2023-03-14T10:04:23;9.40;1.00
8527;DHT22;4301;48.362;8.478;2023-03-14T10:06:50;9.40;1.00
8527;DHT22;4301;48.362;8.478;2023-03-14T10:09:21;9.20;99.90
8527;DHT22;4301;48.362;8.478;2023-03-14T10:11:55;9.20;99.90
8527;DHT22;4301;48.362;8.478;2023-03-14T10:14:30;9.00;99.90
8527;DHT22;4301;48.362;8.478;2023-03-14T10:17:06;8.90;1.00
8527;DHT22;4301;48.362;8.478;2023-03-14T10:19:34;8.80;99.90
8527;DHT22;4301;48.362;8.478;2023-03-14T10:22:02;8.70;1.00
8527;DHT22;4301;48.362;8.478;2023-03-14T10:24:33;8.70;99.90
8527;DHT22;4301;48.362;8.478;2023-03-14T10:27:02;8.60;1.00
8527;DHT22;4301;48.362;8.478;2023-03-14T10:29:31;8.60;1.00
8527;DHT22;4301;48.362;8.478;2023-03-14T10:31:59;8.40;1.00
8527;DHT22;4301;48.362;8.478;2023-03-14T10:34:29;8.30;1.00
8527;DHT22;4301;48.362;8.478;2023-03-14T10:36:58;8.10;1.00
8527;DHT22;4301;48.362;8.478;2023-03-14T10:39:34;8.10;1.00
8527;DHT22;4301;48.362;8.478;2023-03-14T10:42:11;8.00;1.00
8527;DHT22;4301;48.362;8.478;2023-03-14T10:44:40;7.90;9.20
8527;DHT22;4301;48.362;8.478;2023-03-14T10:47:16;8.00;70.70
8527;DHT22;4301;48.362;8.478;2023-03-14T10:49:44;7.90;23.10
8527;DHT22;4301;48.362;8.478;2023-03-14T10:52:17;7.90;79.20
8527;DHT22;4301;48.362;8.478;2023-03-14T10:54:48;7.80;44.60
8527;DHT22;4301;48.362;8.478;2023-03-14T10:57:19;7.70;94.70
8527;DHT22;4301;48.362;8.478;2023-03-14T10:59:46;7.80;97.60
8527;DHT22;4301;48.362;8.478;2023-03-14T11:02:25;7.60;82.50
8527;DHT22;4301;48.362;8.478;2023-03-14T11:05:05;7.60;99.90
8527;DHT22;4301;48.362;8.478;2023-03-14T11:07:37;7.60;99.90
8527;DHT22;4301;48.362;8.478;2023-03-14T11:10:13;7.60;99.90
8527;DHT22;4301;48.362;8.478;2023-03-14T11:12:49;7.40;99.90
8527;DHT22;4301;48.362;8.478;2023-03-14T11:15:23;7.60;99.90
8527;DHT22;4301;48.362;8.478;2023-03-14T11:21:02;7.70;99.90
8527;DHT22;4301;48.362;8.478;2023-03-14T11:23:42;7.70;99.90
8527;DHT22;4301;48.362;8.478;2023-03-14T11:26:24;7.60;99.90
8527;DHT22;4301;48.362;8.478;2023-03-14T11:28:57;7.60;99.90
8527;DHT22;4301;48.362;8.478;2023-03-14T11:31:26;7.60;99.90
8527;DHT22;4301;48.362;8.478;2023-03-14T11:33:57;7.60;99.90
8527;DHT22;4301;48.362;8.478;2023-03-14T11:36:31;7.50;99.90
8527;DHT22;4301;48.362;8.478;2023-03-14T11:39:00;7.40;99.90
8527;DHT22;4301;48.362;8.478;2023-03-14T11:41:31;7.50;99.90
8527;DHT22;4301;48.362;8.478;2023-03-14T11:44:03;7.50;99.90
8527;DHT22;4301;48.362;8.478;2023-03-14T11:46:34;7.50;99.90
8527;DHT22;4301;48.362;8.478;2023-03-14T11:49:05;7.50;99.90
8527;DHT22;4301;48.362;8.478;2023-03-14T11:51:36;7.40;99.90
8527;DHT22;4301;48.362;8.478;2023-03-14T11:54:13;7.40;99.90
8527;DHT22;4301;48.362;8.478;2023-03-14T11:56:47;7.00;99.90
8527;DHT22;4301;48.362;8.478;2023-03-14T11:59:19;6.20;99.90
8527;DHT22;4301;48.362;8.478;2023-03-14T12:01:53;5.80;91.60
8527;DHT22;4301;48.362;8.478;2023-03-14T12:04:31;5.90;21.90
8527;DHT22;4301;48.362;8.478;2023-03-14T12:07:03;6.00;1.00
8527;DHT22;4301;48.362;8.478;2023-03-14T12:09:34;6.20;1.00
8527;DHT22;4301;48.362;8.478;2023-03-14T12:12:06;6.40;1.00
8527;DHT22;4301;48.362;8.478;2023-03-14T12:14:35;6.60;1.00
8527;DHT22;4301;48.362;8.478;2023-03-14T12:17:06;6.50;1.00
8527;DHT22;4301;48.362;8.478;2023-03-14T12:19:37;6.70;1.00
8527;DHT22;4301;48.362;8.478;2023-03-14T12:22:27;7.10;1.00
8527;DHT22;4301;48.362;8.478;2023-03-14T12:25:00;9.40;38.20
8527;DHT22;4301;48.362;8.478;2023-03-14T12:30:41;9.90;99.90
8527;DHT22;4301;48.362;8.478;2023-03-14T12:33:30;8.80;1.00
8527;DHT22;4301;48.362;8.478;2023-03-14T12:36:03;8.00;99.90
8527;DHT22;4301;48.362;8.478;2023-03-14T12:39:03;7.80;1.00
8527;DHT22;4301;48.362;8.478;2023-03-14T12:41:38;7.70;1.00
8527;DHT22;4301;48.362;8.478;2023-03-14T12:44:41;7.70;1.00
8527;DHT22;4301;48.362;8.478;2023-03-14T12:47:49;7.20;1.00
8527;DHT22;4301;48.362;8.478;2023-03-14T12:50:26;7.10;99.90
8527;DHT22;4301;48.362;8.478;2023-03-14T12:53:37;7.00;1.00
8527;DHT22;4301;48.362;8.478;2023-03-14T12:56:25;7.00;99.90
8527;DHT22;4301;48.362;8.478;2023-03-14T12:59:11;6.70;99.90
8527;DHT22;4301;48.362;8.478;2023-03-14T13:01:47;6.60;99.90
8527;DHT22;4301;48.362;8.478;2023-03-14T13:04:16;6.60;1.00
8527;DHT22;4301;48.362;8.478;2023-03-14T13:06:51;6.60;1.00
8527;DHT22;4301;48.362;8.478;2023-03-14T13:12:17;6.20;99.90
8527;DHT22;4301;48.362;8.478;2023-03-14T13:14:47;6.20;1.00
8527;DHT22;4301;48.362;8.478;2023-03-14T13:17:19;6.20;1.00
8527;DHT22;4301;48.362;8.478;2023-03-14T13:19:51;6.10;1.00
8527;DHT22;4301;48.362;8.478;2023-03-14T13:22:23;6.10;1.00
8527;DHT22;4301;48.362;8.478;2023-03-14T13:24:59;6.30;1.00
8527;DHT22;4301;48.362;8.478;2023-03-14T13:27:26;6.40;99.90
8527;DHT22;4301;48.362;8.478;2023-03-14T13:29:52;6.60;49.20
8527;DHT22;4301;48.362;8.478;2023-03-14T13:32:21;6.40;1.00
8527;DHT22;4301;48.362;8.478;2023-03-14T13:34:50;6.30;1.00
8527;DHT22;4301;48.362;8.478;2023-03-14T13:37:18;6.10;1.00
8527;DHT22;4301;48.362;8.478;2023-03-14T13:39:49;6.20;1.00
8527;DHT22;4301;48.362;8.478;2023-03-14T13:42:17;6.00;1.00
8527;DHT22;4301;48.362;8.478;2023-03-14T13:44:44;5.90;18.40
8527;DHT22;4301;48.362;8.478;2023-03-14T13:47:15;5.90;1.00
8527;DHT22;4301;48.362;8.478;2023-03-14T13:49:43;5.90;1.00
8527;DHT22;4301;48.362;8.478;2023-03-14T13:52:31;5.80;99.90
8527;DHT22;4301;48.362;8.478;2023-03-14T13:55:00;5.80;99.90
8527;DHT22;4301;48.362;8.478;2023-03-14T13:57:43;5.70;99.90
8527;DHT22;4301;48.362;8.478;2023-03-14T14:00:18;5.70;1.00
8527;DHT22;4301;48.362;8.478;2023-03-14T14:02:45;5.60;1.00
8527;DHT22;4301;48.362;8.478;2023-03-14T14:05:13;5.60;1.00
8527;DHT22;4301;48.362;8.478;2023-03-14T14:07:43;5.60;99.90
8527;DHT22;4301;48.362;8.478;2023-03-14T14:10:11;5.70;99.90
8527;DHT22;4301;48.362;8.478;2023-03-14T14:12:41;5.50;99.90
8527;DHT22;4301;48.362;8.478;2023-03-14T14:15:11;5.50;1.00
8527;DHT22;4301;48.362;8.478;2023-03-14T14:17:43;5.50;99.90
8527;DHT22;4301;48.362;8.478;2023-03-14T14:20:19;5.40;1.00
8527;DHT22;4301;48.362;8.478;2023-03-14T14:22:48;5.50;40.50
8527;DHT22;4301;48.362;8.478;2023-03-14T14:25:16;5.50;99.90
8527;DHT22;4301;48.362;8.478;2023-03-14T14:27:46;5.60;99.90
8527;DHT22;4301;48.362;8.478;2023-03-14T14:30:28;5.80;99.90
8527;DHT22;4301;48.362;8.478;2023-03-14T14:33:11;6.00;1.00
8527;DHT22;4301;48.362;8.478;2023-03-14T14:35:40;6.10;1.00
8527;DHT22;4301;48.362;8.478;2023-03-14T14:38:12;6.20;1.00
8527;DHT22;4301;48.362;8.478;2023-03-14T14:40:47;6.20;1.00
8527;DHT22;4301;48.362;8.478;2023-03-14T14:43:18;6.10;1.00
8527;DHT22;4301;48.362;8.478;2023-03-14T14:45:49;6.10;1.00
8527;DHT22;4301;48.362;8.478;2023-03-14T14:48:21;6.10;1.00
8527;DHT22;4301;48.362;8.478;2023-03-14T14:50:55;6.20;99.90
8527;DHT22;4301;48.362;8.478;2023-03-14T14:53:27;6.10;1.00
8527;DHT22;4301;48.362;8.478;2023-03-14T14:55:57;6.50;1.00
8527;DHT22;4301;48.362;8.478;2023-03-14T14:58:26;7.20;99.90
8527;DHT22;4301;48.362;8.478;2023-03-14T15:00:56;7.20;99.90
8527;DHT22;4301;48.362;8.478;2023-03-14T15:03:26;7.00;99.90
8527;DHT22;4301;48.362;8.478;2023-03-14T15:05:54;6.70;99.90
8527;DHT22;4301;48.362;8.478;2023-03-14T15:08:23;6.40;99.90
8527;DHT22;4301;48.362;8.478;2023-03-14T15:10:51;6.20;99.90
8527;DHT22;4301;48.362;8.478;2023-03-14T15:13:18;6.20;99.90
8527;DHT22;4301;48.362;8.478;2023-03-14T15:15:45;6.30;1.00
8527;DHT22;4301;48.362;8.478;2023-03-14T15:18:14;6.20;99.90
8527;DHT22;4301;48.362;8.478;2023-03-14T15:20:42;7.10;99.90
8527;DHT22;4301;48.362;8.478;2023-03-14T15:23:14;8.00;99.90
8527;DHT22;4301;48.362;8.478;2023-03-14T15:25:43;8.10;57.60
8527;DHT22;4301;48.362;8.478;2023-03-14T15:28:14;8.80;1.00
8527;DHT22;4301;48.362;8.478;2023-03-14T15:30:42;8.90;1.00
8527;DHT22;4301;48.362;8.478;2023-03-14T15:33:09;8.60;1.00
8527;DHT22;4301;48.362;8.478;2023-03-14T15:35:36;7.60;1.00
8527;DHT22;4301;48.362;8.478;2023-03-14T15:38:03;7.20;1.00
8527;DHT22;4301;48.362;8.478;2023-03-14T15:40:30;6.90;1.00
8527;DHT22;4301;48.362;8.478;2023-03-14T15:42:59;6.60;1.00
8527;DHT22;4301;48.362;8.478;2023-03-14T15:45:26;6.50;1.00
8527;DHT22;4301;48.362;8.478;2023-03-14T15:47:52;6.40;1.00
8527;DHT22;4301;48.362;8.478;2023-03-14T15:50:20;6.30;1.00
8527;DHT22;4301;48.362;8.478;2023-03-14T15:52:47;6.20;26.30
8527;DHT22;4301;48.362;8.478;2023-03-14T15:55:14;6.20;7.60
8527;DHT22;4301;48.362;8.478;2023-03-14T15:57:42;6.30;91.90
8527;DHT22;4301;48.362;8.478;2023-03-14T16:00:12;6.20;1.00
8527;DHT22;4301;48.362;8.478;2023-03-14T16:02:41;6.20;55.60
8527;DHT22;4301;48.362;8.478;2023-03-14T16:05:09;6.00;86.90
8527;DHT22;4301;48.362;8.478;2023-03-14T16:07:37;6.00;1.00
8527;DHT22;4301;48.362;8.478;2023-03-14T16:10:06;5.90;58.10
8527;DHT22;4301;48.362;8.478;2023-03-14T16:12:33;5.90;28.10
8527;DHT22;4301;48.362;8.478;2023-03-14T16:15:00;5.90;34.90
8527;DHT22;4301;48.362;8.478;2023-03-14T16:17:29;5.90;16.90
8527;DHT22;4301;48.362;8.478;2023-03-14T16:19:56;5.90;99.90
8527;DHT22;4301;48.362;8.478;2023-03-14T16:22:23;5.90;99.90
8527;DHT22;4301;48.362;8.478;2023-03-14T16:24:50;5.90;99.90
8527;DHT22;4301;48.362;8.478;2023-03-14T16:27:17;5.90;99.90
8527;DHT22;4301;48.362;8.478;2023-03-14T16:29:44;5.90;99.90
8527;DHT22;4301;48.362;8.478;2023-03-14T16:32:13;5.80;99.90
8527;DHT22;4301;48.362;8.478;2023-03-14T16:34:41;5.80;99.90
8527;DHT22;4301;48.362;8.478;2023-03-14T16:37:08;5.80;99.90
8527;DHT22;4301;48.362;8.478;2023-03-14T16:39:35;5.80;1.00
8527;DHT22;4301;48.362;8.478;2023-03-14T16:42:03;5.80;99.90
8527;DHT22;4301;48.362;8.478;2023-03-14T16:44:29;5.70;99.90
8527;DHT22;4301;48.362;8.478;2023-03-14T16:46:56;5.70;1.00